createdAt,value
2022-12-01T00:00:16.235Z,478
2022-12-01T00:01:16.084Z,553
2022-12-01T00:02:16.125Z,553
2022-12-01T00:03:16.143Z,553
2022-12-01T00:05:16.250Z,553
2022-12-01T00:06:16.046Z,518
2022-12-01T00:07:16.057Z,518
2022-12-01T00:08:16.066Z,518
2022-12-01T00:10:16.225Z,518
2022-12-01T00:11:16.091Z,564
2022-12-01T00:12:16.051Z,564
2022-12-01T00:13:16.071Z,564
2022-12-01T00:15:16.270Z,564
2022-12-01T00:16:16.119Z,500
2022-12-01T00:17:16.051Z,500
2022-12-01T00:18:16.035Z,500
2022-12-01T00:20:16.252Z,500
2022-12-01T00:21:16.090Z,564
2022-12-01T00:22:16.069Z,564
2022-12-01T00:23:16.038Z,564
2022-12-01T00:25:16.256Z,564
2022-12-01T00:26:16.067Z,518
2022-12-01T00:27:16.081Z,518
2022-12-01T00:28:16.094Z,518
2022-12-01T00:30:16.256Z,518
2022-12-01T00:31:16.088Z,471
2022-12-01T00:32:16.088Z,471
2022-12-01T00:33:16.057Z,471
2022-12-01T00:35:16.280Z,471
2022-12-01T00:36:16.100Z,437
2022-12-01T00:37:16.078Z,437
2022-12-01T00:38:16.097Z,437
2022-12-01T00:40:16.263Z,437
2022-12-01T00:41:16.059Z,528
2022-12-01T00:42:16.103Z,528
2022-12-01T00:43:16.085Z,528
2022-12-01T00:45:16.254Z,528
2022-12-01T00:46:16.120Z,471
2022-12-01T00:47:16.082Z,471
2022-12-01T00:48:16.054Z,471
2022-12-01T00:50:16.263Z,471
2022-12-01T00:51:16.085Z,581
2022-12-01T00:52:16.071Z,528
2022-12-01T00:53:16.057Z,528
2022-12-01T00:55:16.256Z,528
2022-12-01T00:56:16.069Z,506
2022-12-01T00:57:16.058Z,506
2022-12-01T00:58:16.090Z,506
2022-12-01T01:00:16.237Z,506
2022-12-01T01:01:16.143Z,553
2022-12-01T01:02:16.099Z,553
2022-12-01T01:03:16.076Z,553
2022-12-01T01:05:16.265Z,553
2022-12-01T01:06:16.061Z,471
2022-12-01T01:07:16.058Z,471
2022-12-01T01:08:16.096Z,471
2022-12-01T01:10:16.270Z,471
2022-12-01T01:11:16.095Z,518
2022-12-01T01:12:16.079Z,518
2022-12-01T01:13:16.095Z,518
2022-12-01T01:15:16.272Z,518
2022-12-01T01:16:16.105Z,478
2022-12-01T01:17:16.091Z,478
2022-12-01T01:18:16.105Z,548
2022-12-01T01:20:16.247Z,478
2022-12-01T01:21:16.098Z,485
2022-12-01T01:22:16.066Z,485
2022-12-01T01:23:16.065Z,485
2022-12-01T01:25:16.275Z,485
2022-12-01T01:26:16.097Z,485
2022-12-01T01:27:16.103Z,485
2022-12-01T01:28:16.082Z,485
2022-12-01T01:30:16.251Z,485
2022-12-01T01:31:16.158Z,478
2022-12-01T01:32:16.089Z,478
2022-12-01T01:33:16.079Z,540
2022-12-01T01:35:16.245Z,478
2022-12-01T01:36:16.105Z,535
2022-12-01T01:37:16.095Z,471
2022-12-01T01:38:16.081Z,471
2022-12-01T01:40:16.280Z,471
2022-12-01T01:41:16.098Z,506
2022-12-01T01:42:16.108Z,506
2022-12-01T01:43:16.101Z,506
2022-12-01T01:45:16.257Z,506
2022-12-01T01:46:16.156Z,506
2022-12-01T01:47:16.137Z,506
2022-12-01T01:48:16.097Z,506
2022-12-01T01:50:16.291Z,506
2022-12-01T01:51:16.098Z,506
2022-12-01T01:52:16.072Z,506
2022-12-01T01:53:16.068Z,506
2022-12-01T01:55:16.294Z,506
2022-12-01T01:56:16.106Z,599
2022-12-01T01:57:16.075Z,599
2022-12-01T01:58:16.093Z,599
2022-12-01T02:00:16.275Z,599
2022-12-01T02:01:16.164Z,599
2022-12-01T02:02:16.182Z,599
2022-12-01T02:03:16.111Z,599
2022-12-01T02:05:16.285Z,599
2022-12-01T02:06:16.093Z,591
2022-12-01T02:07:16.117Z,591
2022-12-01T02:08:16.102Z,591
2022-12-01T02:10:16.266Z,591
2022-12-01T02:11:16.096Z,506
2022-12-01T02:12:16.106Z,506
2022-12-01T02:13:16.112Z,506
2022-12-01T02:15:16.255Z,506
2022-12-01T02:16:16.132Z,478
2022-12-01T02:17:16.086Z,478
2022-12-01T02:18:16.115Z,478
2022-12-01T02:20:16.261Z,478
2022-12-01T02:21:16.108Z,528
2022-12-01T02:22:16.083Z,528
2022-12-01T02:23:16.136Z,528
2022-12-01T02:25:16.294Z,528
2022-12-01T02:26:16.113Z,528
2022-12-01T02:27:16.101Z,528
2022-12-01T02:28:16.114Z,528
2022-12-01T02:30:16.300Z,528
2022-12-01T02:31:16.182Z,528
2022-12-01T02:32:16.091Z,534
2022-12-01T02:33:16.119Z,529
2022-12-01T02:35:16.279Z,528
2022-12-01T02:36:16.118Z,528
2022-12-01T02:37:16.119Z,528
2022-12-01T02:38:16.099Z,528
2022-12-01T02:40:16.279Z,528
2022-12-01T02:41:16.118Z,519
2022-12-01T02:42:16.101Z,518
2022-12-01T02:43:16.117Z,518
2022-12-01T02:45:16.278Z,519
2022-12-01T02:46:16.283Z,506
2022-12-01T02:47:16.125Z,478
2022-12-01T02:48:16.111Z,490
2022-12-01T02:50:16.294Z,478
2022-12-01T02:51:16.163Z,540
2022-12-01T02:52:16.122Z,540
2022-12-01T02:53:16.184Z,493
2022-12-01T02:55:16.303Z,493
2022-12-01T02:56:16.226Z,485
2022-12-01T02:57:16.119Z,485
2022-12-01T02:58:16.096Z,485
2022-12-01T03:00:16.309Z,517
2022-12-01T03:01:16.158Z,485
2022-12-01T03:02:16.226Z,485
2022-12-01T03:03:16.097Z,490
2022-12-01T03:05:16.311Z,492
2022-12-01T03:06:16.125Z,485
2022-12-01T03:07:16.101Z,517
2022-12-01T03:08:16.108Z,486
2022-12-01T03:10:16.308Z,485
2022-12-01T03:11:16.125Z,528
2022-12-01T03:12:16.115Z,538
2022-12-01T03:13:16.132Z,528
2022-12-01T03:15:16.320Z,528
2022-12-01T03:16:16.163Z,546
2022-12-01T03:17:16.180Z,535
2022-12-01T03:18:16.113Z,540
2022-12-01T03:20:16.310Z,552
2022-12-01T03:21:16.133Z,535
2022-12-01T03:22:16.142Z,552
2022-12-01T03:23:16.147Z,552
2022-12-01T03:25:16.315Z,535
2022-12-01T03:26:16.105Z,585
2022-12-01T03:27:16.104Z,594
2022-12-01T03:28:22.073Z,588
2022-12-01T03:30:16.316Z,571
2022-12-01T03:31:16.159Z,535
2022-12-01T03:32:16.120Z,535
2022-12-01T03:33:16.135Z,546
2022-12-01T03:35:16.293Z,546
2022-12-01T03:36:16.141Z,535
2022-12-01T03:37:16.140Z,540
2022-12-01T03:38:16.136Z,535
2022-12-01T03:40:16.315Z,535
2022-12-01T03:41:16.109Z,535
2022-12-01T03:42:16.117Z,535
2022-12-01T03:43:16.151Z,535
2022-12-01T03:45:16.313Z,535
2022-12-01T03:46:16.212Z,528
2022-12-01T03:47:16.147Z,528
2022-12-01T03:48:16.141Z,528
2022-12-01T03:50:16.293Z,528
2022-12-01T03:51:16.145Z,528
2022-12-01T03:52:16.143Z,528
2022-12-01T03:53:16.110Z,528
2022-12-01T03:55:16.324Z,528
2022-12-01T03:56:16.111Z,571
2022-12-01T03:57:16.130Z,571
2022-12-01T03:58:16.140Z,571
2022-12-01T04:00:16.353Z,571
2022-12-01T04:01:16.212Z,571
2022-12-01T04:02:16.143Z,571
2022-12-01T04:03:16.151Z,571
2022-12-01T04:05:18.944Z,571
2022-12-01T04:06:16.141Z,534
2022-12-01T04:07:16.152Z,528
2022-12-01T04:08:16.119Z,528
2022-12-01T04:10:16.307Z,528
2022-12-01T04:11:16.117Z,571
2022-12-01T04:12:16.140Z,571
2022-12-01T04:13:16.125Z,571
2022-12-01T04:15:16.326Z,571
2022-12-01T04:16:16.166Z,571
2022-12-01T04:17:16.136Z,571
2022-12-01T04:18:16.130Z,571
2022-12-01T04:20:16.336Z,571
2022-12-01T04:21:16.153Z,581
2022-12-01T04:22:16.127Z,581
2022-12-01T04:23:16.122Z,581
2022-12-01T04:25:16.313Z,581
2022-12-01T04:26:16.177Z,610
2022-12-01T04:27:16.138Z,610
2022-12-01T04:28:16.125Z,610
2022-12-01T04:30:16.331Z,610
2022-12-01T04:31:16.179Z,730
2022-12-01T04:32:16.151Z,730
2022-12-01T04:33:16.166Z,730
2022-12-01T04:35:16.389Z,730
2022-12-01T04:36:16.148Z,620
2022-12-01T04:37:16.155Z,620
2022-12-01T04:38:16.161Z,620
2022-12-01T04:40:16.304Z,620
2022-12-01T04:41:16.168Z,571
2022-12-01T04:42:16.164Z,571
2022-12-01T04:43:16.141Z,571
2022-12-01T04:45:16.348Z,571
2022-12-01T04:46:16.227Z,620
2022-12-01T04:47:16.158Z,620
2022-12-01T04:48:16.171Z,620
2022-12-01T04:50:16.356Z,620
2022-12-01T04:51:16.157Z,620
2022-12-01T04:52:16.141Z,620
2022-12-01T04:53:16.153Z,620
2022-12-01T04:55:16.339Z,620
2022-12-01T04:56:16.138Z,620
2022-12-01T04:57:16.134Z,620
2022-12-01T04:58:16.148Z,651
2022-12-01T05:00:16.317Z,621
2022-12-01T05:01:16.206Z,571
2022-12-01T05:02:16.197Z,571
2022-12-01T05:03:16.144Z,571
2022-12-01T05:05:16.330Z,571
2022-12-01T05:06:16.194Z,629
2022-12-01T05:07:16.151Z,639
2022-12-01T05:08:16.148Z,629
2022-12-01T05:10:16.354Z,629
2022-12-01T05:11:16.171Z,620
2022-12-01T05:12:16.181Z,620
2022-12-01T05:13:16.178Z,620
2022-12-01T05:15:16.329Z,620
2022-12-01T05:16:16.223Z,650
2022-12-01T05:17:16.172Z,650
2022-12-01T05:18:16.174Z,650
2022-12-01T05:20:16.341Z,650
2022-12-01T05:21:16.205Z,571
2022-12-01T05:22:16.160Z,571
2022-12-01T05:23:17.115Z,571
2022-12-01T05:25:16.329Z,571
2022-12-01T05:26:16.180Z,741
2022-12-01T05:27:16.155Z,741
2022-12-01T05:28:16.161Z,741
2022-12-01T05:30:16.329Z,741
2022-12-01T05:31:16.169Z,671
2022-12-01T05:32:16.181Z,671
2022-12-01T05:33:16.194Z,671
2022-12-01T05:35:16.370Z,675
2022-12-01T05:36:16.163Z,571
2022-12-01T05:37:16.169Z,573
2022-12-01T05:38:16.168Z,571
2022-12-01T05:40:16.328Z,571
2022-12-01T05:41:16.146Z,733
2022-12-01T05:42:16.180Z,601
2022-12-01T05:43:16.163Z,585
2022-12-01T05:45:16.366Z,720
2022-12-01T05:46:16.307Z,581
2022-12-01T05:47:16.188Z,581
2022-12-01T05:48:16.156Z,581
2022-12-01T05:50:16.375Z,581
2022-12-01T05:51:16.193Z,639
2022-12-01T05:52:16.158Z,639
2022-12-01T05:53:16.183Z,639
2022-12-01T05:55:16.362Z,639
2022-12-01T05:56:16.159Z,629
2022-12-01T05:57:16.220Z,629
2022-12-01T05:58:16.164Z,631
2022-12-01T06:00:16.373Z,629
2022-12-01T06:01:16.160Z,565
2022-12-01T06:02:16.191Z,564
2022-12-01T06:03:16.183Z,576
2022-12-01T06:05:16.346Z,564
2022-12-01T06:06:16.189Z,571
2022-12-01T06:07:16.193Z,571
2022-12-01T06:08:16.202Z,733
2022-12-01T06:10:16.354Z,571
2022-12-01T06:11:16.158Z,620
2022-12-01T06:12:16.208Z,655
2022-12-01T06:13:16.185Z,620
2022-12-01T06:15:16.373Z,642
2022-12-01T06:16:16.229Z,591
2022-12-01T06:17:16.195Z,604
2022-12-01T06:18:16.221Z,591
2022-12-01T06:20:16.382Z,606
2022-12-01T06:21:16.208Z,581
2022-12-01T06:22:16.201Z,581
2022-12-01T06:23:16.185Z,581
2022-12-01T06:25:16.345Z,581
2022-12-01T06:26:16.174Z,639
2022-12-01T06:27:16.166Z,639
2022-12-01T06:28:16.196Z,639
2022-12-01T06:30:16.406Z,640
2022-12-01T06:31:16.355Z,706
2022-12-01T06:32:16.170Z,680
2022-12-01T06:33:16.194Z,680
2022-12-01T06:35:16.377Z,680
2022-12-01T06:36:16.185Z,680
2022-12-01T06:37:16.174Z,680
2022-12-01T06:38:16.190Z,680
2022-12-01T06:40:16.376Z,680
2022-12-01T06:41:16.202Z,639
2022-12-01T06:42:16.184Z,639
2022-12-01T06:43:16.196Z,639
2022-12-01T06:45:16.374Z,639
2022-12-01T06:46:16.233Z,591
2022-12-01T06:47:16.169Z,591
2022-12-01T06:48:16.207Z,591
2022-12-01T06:50:16.357Z,591
2022-12-01T06:51:16.187Z,542
2022-12-01T06:52:16.231Z,542
2022-12-01T06:53:16.204Z,542
2022-12-01T06:55:16.380Z,542
2022-12-01T06:56:16.197Z,552
2022-12-01T06:57:16.191Z,552
2022-12-01T06:58:16.204Z,552
2022-12-01T07:00:16.394Z,553
2022-12-01T07:01:16.203Z,611
2022-12-01T07:02:16.240Z,591
2022-12-01T07:03:16.239Z,591
2022-12-01T07:05:16.388Z,591
2022-12-01T07:06:16.212Z,552
2022-12-01T07:07:16.193Z,552
2022-12-01T07:08:16.307Z,552
2022-12-01T07:10:16.395Z,565
2022-12-01T07:11:16.220Z,523
2022-12-01T07:12:16.195Z,535
2022-12-01T07:13:16.206Z,523
2022-12-01T07:15:16.394Z,523
2022-12-01T07:16:16.214Z,706
2022-12-01T07:17:16.207Z,564
2022-12-01T07:18:16.211Z,564
2022-12-01T07:20:16.391Z,565
2022-12-01T07:21:16.213Z,552
2022-12-01T07:22:16.226Z,552
2022-12-01T07:23:16.213Z,552
2022-12-01T07:25:16.371Z,552
2022-12-01T07:26:16.208Z,552
2022-12-01T07:27:16.213Z,552
2022-12-01T07:28:16.216Z,552
2022-12-01T07:30:16.425Z,655
2022-12-01T07:31:16.241Z,564
2022-12-01T07:32:16.188Z,564
2022-12-01T07:33:16.187Z,564
2022-12-01T07:35:16.410Z,564
2022-12-01T07:36:16.225Z,599
2022-12-01T07:37:16.201Z,599
2022-12-01T07:38:19.164Z,599
2022-12-01T07:40:16.418Z,599
2022-12-01T07:41:16.203Z,650
2022-12-01T07:42:16.213Z,650
2022-12-01T07:43:16.207Z,650
2022-12-01T07:45:16.396Z,650
2022-12-01T07:46:22.161Z,552
2022-12-01T07:47:16.196Z,552
2022-12-01T07:48:16.227Z,552
2022-12-01T07:50:16.374Z,552
2022-12-01T07:51:16.221Z,564
2022-12-01T07:52:16.210Z,564
2022-12-01T07:53:16.211Z,564
2022-12-01T07:55:16.399Z,564
2022-12-01T07:56:16.199Z,599
2022-12-01T07:57:16.209Z,599
2022-12-01T07:58:16.226Z,599
2022-12-01T08:00:16.415Z,599
2022-12-01T08:01:16.272Z,542
2022-12-01T08:02:16.402Z,542
2022-12-01T08:03:16.292Z,613
2022-12-01T08:05:16.409Z,542
2022-12-01T08:06:16.221Z,552
2022-12-01T08:07:16.207Z,552
2022-12-01T08:08:16.252Z,552
2022-12-01T08:10:16.403Z,552
2022-12-01T08:11:16.201Z,658
2022-12-01T08:12:16.201Z,658
2022-12-01T08:13:17.517Z,658
2022-12-01T08:15:16.408Z,658
2022-12-01T08:16:16.267Z,552
2022-12-01T08:17:16.203Z,552
2022-12-01T08:18:16.231Z,552
2022-12-01T08:20:19.613Z,552
2022-12-01T08:21:16.237Z,599
2022-12-01T08:22:16.225Z,599
2022-12-01T08:23:16.199Z,599
2022-12-01T08:25:16.419Z,599
2022-12-01T08:26:16.214Z,542
2022-12-01T08:27:16.254Z,542
2022-12-01T08:28:16.238Z,542
2022-12-01T08:30:16.400Z,542
2022-12-01T08:31:16.286Z,591
2022-12-01T08:32:16.229Z,591
2022-12-01T08:33:16.201Z,591
2022-12-01T08:35:16.454Z,591
2022-12-01T08:36:16.219Z,542
2022-12-01T08:37:16.234Z,542
2022-12-01T08:38:16.218Z,542
2022-12-01T08:40:16.433Z,542
2022-12-01T08:41:16.236Z,508
2022-12-01T08:42:16.240Z,508
2022-12-01T08:43:34.616Z,508
2022-12-01T08:45:16.423Z,508
2022-12-01T08:46:16.267Z,552
2022-12-01T08:47:18.812Z,552
2022-12-01T08:48:16.241Z,552
2022-12-01T08:50:16.465Z,552
2022-12-01T08:51:16.244Z,650
2022-12-01T08:52:16.244Z,650
2022-12-01T08:53:16.251Z,650
2022-12-01T08:55:16.434Z,650
2022-12-01T08:56:16.220Z,564
2022-12-01T08:57:16.206Z,564
2022-12-01T08:58:16.272Z,564
2022-12-01T09:00:16.425Z,564
2022-12-01T09:01:16.263Z,571
2022-12-01T09:02:16.306Z,571
2022-12-01T09:03:16.284Z,571
2022-12-01T09:05:16.418Z,571
2022-12-01T09:06:16.217Z,477
2022-12-01T09:07:18.115Z,477
2022-12-01T09:08:16.293Z,477
2022-12-01T09:10:16.430Z,477
2022-12-01T09:11:16.259Z,508
2022-12-01T09:12:16.234Z,508
2022-12-01T09:13:16.254Z,508
2022-12-01T09:15:16.434Z,508
2022-12-01T09:16:16.307Z,571
2022-12-01T09:17:16.226Z,571
2022-12-01T09:18:16.233Z,571
2022-12-01T09:20:16.443Z,571
2022-12-01T09:21:16.236Z,564
2022-12-01T09:22:16.246Z,564
2022-12-01T09:23:16.242Z,564
2022-12-01T09:25:16.432Z,564
2022-12-01T09:26:16.308Z,508
2022-12-01T09:27:16.240Z,508
2022-12-01T09:28:16.229Z,508
2022-12-01T09:30:16.428Z,508
2022-12-01T09:31:16.300Z,531
2022-12-01T09:32:16.259Z,531
2022-12-01T09:33:16.249Z,531
2022-12-01T09:35:19.620Z,531
2022-12-01T09:36:16.234Z,485
2022-12-01T09:37:16.243Z,485
2022-12-01T09:38:16.228Z,485
2022-12-01T09:40:16.444Z,485
2022-12-01T09:41:16.275Z,523
2022-12-01T09:42:16.321Z,523
2022-12-01T09:43:16.262Z,523
2022-12-01T09:45:16.452Z,523
2022-12-01T09:46:16.349Z,485
2022-12-01T09:47:16.239Z,485
2022-12-01T09:48:16.265Z,485
2022-12-01T09:50:16.447Z,485
2022-12-01T09:51:16.258Z,523
2022-12-01T09:52:16.265Z,523
2022-12-01T09:53:16.230Z,523
2022-12-01T09:55:16.457Z,523
2022-12-01T09:56:16.270Z,466
2022-12-01T09:57:16.249Z,466
2022-12-01T09:58:16.271Z,466
2022-12-01T10:00:16.416Z,466
2022-12-01T10:01:16.333Z,523
2022-12-01T10:02:16.334Z,523
2022-12-01T10:03:16.239Z,523
2022-12-01T10:05:16.496Z,523
2022-12-01T10:06:27.053Z,523
2022-12-01T10:07:16.276Z,523
2022-12-01T10:08:16.239Z,523
2022-12-01T10:10:16.430Z,523
2022-12-01T10:11:16.241Z,508
2022-12-01T10:12:16.277Z,508
2022-12-01T10:13:16.295Z,508
2022-12-01T10:15:16.453Z,508
2022-12-01T10:16:16.296Z,564
2022-12-01T10:17:16.287Z,564
2022-12-01T10:18:16.278Z,564
2022-12-01T10:20:16.456Z,564
2022-12-01T10:21:16.277Z,552
2022-12-01T10:22:16.246Z,552
2022-12-01T10:23:16.278Z,552
2022-12-01T10:25:16.462Z,552
2022-12-01T10:26:16.268Z,523
2022-12-01T10:27:16.288Z,523
2022-12-01T10:28:16.256Z,523
2022-12-01T10:30:16.432Z,523
2022-12-01T10:31:16.327Z,531
2022-12-01T10:32:16.319Z,531
2022-12-01T10:33:16.267Z,531
2022-12-01T10:35:16.441Z,531
2022-12-01T10:36:16.278Z,571
2022-12-01T10:37:16.284Z,571
2022-12-01T10:38:16.267Z,571
2022-12-01T10:40:16.469Z,571
2022-12-01T10:41:16.261Z,581
2022-12-01T10:42:16.328Z,581
2022-12-01T10:43:16.290Z,581
2022-12-01T10:45:16.453Z,581
2022-12-01T10:46:16.320Z,508
2022-12-01T10:47:16.291Z,508
2022-12-01T10:48:16.264Z,508
2022-12-01T10:50:16.464Z,508
2022-12-01T10:51:16.296Z,508
2022-12-01T10:52:16.256Z,508
2022-12-01T10:53:16.285Z,508
2022-12-01T10:55:16.465Z,508
2022-12-01T10:56:16.272Z,621
2022-12-01T10:57:16.260Z,621
2022-12-01T10:58:16.283Z,621
2022-12-01T11:00:36.208Z,621
2022-12-01T11:01:16.366Z,531
2022-12-01T11:02:16.409Z,531
2022-12-01T11:03:21.301Z,531
2022-12-01T11:05:16.444Z,531
2022-12-01T11:06:16.269Z,581
2022-12-01T11:07:16.294Z,581
2022-12-01T11:08:16.291Z,581
2022-12-01T11:10:16.587Z,581
2022-12-01T11:11:16.270Z,493
2022-12-01T11:12:16.258Z,493
2022-12-01T11:13:16.294Z,493
2022-12-01T11:15:16.474Z,493
2022-12-01T11:16:16.322Z,682
2022-12-01T11:17:16.294Z,682
2022-12-01T11:18:16.310Z,682
2022-12-01T11:20:16.526Z,682
2022-12-01T11:21:16.264Z,571
2022-12-01T11:22:16.302Z,571
2022-12-01T11:23:16.330Z,571
2022-12-01T11:25:16.467Z,571
2022-12-01T11:26:16.295Z,541
2022-12-01T11:27:16.303Z,541
2022-12-01T11:28:16.287Z,541
2022-12-01T11:30:16.475Z,541
2022-12-01T11:31:16.334Z,551
2022-12-01T11:32:16.356Z,551
2022-12-01T11:33:16.302Z,551
2022-12-01T11:35:16.482Z,551
2022-12-01T11:36:16.412Z,502
2022-12-01T11:37:16.272Z,502
2022-12-01T11:38:30.217Z,502
2022-12-01T11:40:16.499Z,502
2022-12-01T11:41:16.283Z,541
2022-12-01T11:42:16.279Z,541
2022-12-01T11:43:16.300Z,541
2022-12-01T11:45:16.455Z,541
2022-12-01T11:46:16.349Z,631
2022-12-01T11:47:23.025Z,631
2022-12-01T11:48:16.305Z,631
2022-12-01T11:50:16.483Z,631
2022-12-01T11:51:16.285Z,642
2022-12-01T11:52:16.295Z,642
2022-12-01T11:53:16.279Z,642
2022-12-01T11:55:16.512Z,642
2022-12-01T11:56:16.278Z,642
2022-12-01T11:57:33.540Z,642
2022-12-01T11:58:16.375Z,642
2022-12-01T12:00:16.471Z,642
2022-12-01T12:01:20.487Z,592
2022-12-01T12:02:16.341Z,592
2022-12-01T12:03:16.381Z,592
2022-12-01T12:05:16.520Z,592
2022-12-01T12:06:39.314Z,551
2022-12-01T12:07:16.311Z,551
2022-12-01T12:08:16.328Z,551
2022-12-01T12:10:16.517Z,551
2022-12-01T12:11:16.319Z,653
2022-12-01T12:12:16.279Z,653
2022-12-01T12:13:16.288Z,653
2022-12-01T12:15:16.502Z,653
2022-12-01T12:16:16.292Z,592
2022-12-01T12:17:16.441Z,592
2022-12-01T12:18:16.316Z,592
2022-12-01T12:20:16.961Z,592
2022-12-01T12:21:16.311Z,603
2022-12-01T12:22:16.293Z,603
2022-12-01T12:23:16.302Z,603
2022-12-01T12:25:16.499Z,603
2022-12-01T12:26:16.343Z,603
2022-12-01T12:27:16.336Z,603
2022-12-01T12:28:16.304Z,603
2022-12-01T12:30:16.558Z,603
2022-12-01T12:31:16.333Z,603
2022-12-01T12:32:16.327Z,603
2022-12-01T12:33:16.325Z,603
2022-12-01T12:35:16.499Z,603
2022-12-01T12:36:16.303Z,502
2022-12-01T12:37:16.299Z,502
2022-12-01T12:38:16.311Z,502
2022-12-01T12:40:16.541Z,502
2022-12-01T12:41:16.325Z,551
2022-12-01T12:42:16.336Z,551
2022-12-01T12:43:16.304Z,551
2022-12-01T12:45:16.500Z,551
2022-12-01T12:46:16.371Z,515
2022-12-01T12:47:16.304Z,515
2022-12-01T12:48:16.319Z,515
2022-12-01T12:50:16.545Z,515
2022-12-01T12:51:16.329Z,502
2022-12-01T12:52:16.310Z,502
2022-12-01T12:53:16.331Z,502
2022-12-01T12:55:16.509Z,502
2022-12-01T12:56:16.322Z,502
2022-12-01T12:57:16.316Z,502
2022-12-01T12:58:16.307Z,502
2022-12-01T13:00:16.592Z,502
2022-12-01T13:01:16.428Z,541
2022-12-01T13:02:16.341Z,541
2022-12-01T13:03:16.316Z,541
2022-12-01T13:05:16.521Z,541
2022-12-01T13:06:16.301Z,493
2022-12-01T13:07:16.318Z,493
2022-12-01T13:08:16.330Z,493
2022-12-01T13:10:16.544Z,493
2022-12-01T13:11:16.321Z,502
2022-12-01T13:12:16.339Z,502
2022-12-01T13:13:16.340Z,502
2022-12-01T13:15:16.512Z,502
2022-12-01T13:16:16.409Z,502
2022-12-01T13:17:16.317Z,502
2022-12-01T13:18:16.344Z,502
2022-12-01T13:20:16.518Z,502
2022-12-01T13:21:16.366Z,551
2022-12-01T13:22:16.358Z,551
2022-12-01T13:23:16.343Z,551
2022-12-01T13:25:16.536Z,551
2022-12-01T13:26:16.338Z,541
2022-12-01T13:27:16.314Z,541
2022-12-01T13:28:16.351Z,541
2022-12-01T13:30:16.566Z,541
2022-12-01T13:31:16.372Z,531
2022-12-01T13:32:16.327Z,531
2022-12-01T13:33:16.338Z,531
2022-12-01T13:35:16.496Z,531
2022-12-01T13:36:44.916Z,592
2022-12-01T13:37:16.333Z,592
2022-12-01T13:38:16.310Z,592
2022-12-01T13:40:16.505Z,592
2022-12-01T13:41:16.327Z,592
2022-12-01T13:42:16.335Z,592
2022-12-01T13:43:16.327Z,592
2022-12-01T13:45:16.518Z,592
2022-12-01T13:46:16.392Z,592
2022-12-01T13:47:16.388Z,592
2022-12-01T13:48:16.340Z,592
2022-12-01T13:50:16.528Z,592
2022-12-01T13:51:16.354Z,571
2022-12-01T13:52:16.349Z,571
2022-12-01T13:53:16.317Z,571
2022-12-01T13:55:16.513Z,571
2022-12-01T13:56:16.358Z,531
2022-12-01T13:57:16.328Z,531
2022-12-01T13:58:16.341Z,531
2022-12-01T14:00:16.561Z,531
2022-12-01T14:01:16.472Z,581
2022-12-01T14:02:16.423Z,581
2022-12-01T14:03:16.367Z,581
2022-12-01T14:05:16.514Z,581
2022-12-01T14:06:16.334Z,581
2022-12-01T14:07:16.352Z,581
2022-12-01T14:08:21.390Z,581
2022-12-01T14:10:16.531Z,581
2022-12-01T14:11:16.339Z,581
2022-12-01T14:12:16.353Z,581
2022-12-01T14:13:16.334Z,581
2022-12-01T14:15:16.511Z,581
2022-12-01T14:16:16.407Z,571
2022-12-01T14:17:16.362Z,571
2022-12-01T14:18:16.343Z,571
2022-12-01T14:20:16.539Z,571
2022-12-01T14:21:16.351Z,571
2022-12-01T14:22:16.360Z,571
2022-12-01T14:23:16.358Z,571
2022-12-01T14:25:16.516Z,571
2022-12-01T14:26:16.355Z,571
2022-12-01T14:27:16.364Z,571
2022-12-01T14:28:16.349Z,571
2022-12-01T14:30:16.536Z,571
2022-12-01T14:31:16.383Z,571
2022-12-01T14:32:16.361Z,571
2022-12-01T14:33:16.374Z,571
2022-12-01T14:35:16.530Z,571
2022-12-01T14:36:16.366Z,621
2022-12-01T14:37:16.360Z,621
2022-12-01T14:38:16.330Z,621
2022-12-01T14:40:16.550Z,621
2022-12-01T14:41:21.158Z,611
2022-12-01T14:42:16.336Z,611
2022-12-01T14:43:16.369Z,611
2022-12-01T14:45:16.577Z,611
2022-12-01T14:46:16.405Z,631
2022-12-01T14:47:16.391Z,631
2022-12-01T14:48:16.375Z,631
2022-12-01T14:50:16.551Z,631
2022-12-01T14:51:16.367Z,581
2022-12-01T14:52:16.388Z,581
2022-12-01T14:53:16.352Z,581
2022-12-01T14:55:16.544Z,581
2022-12-01T14:56:16.352Z,621
2022-12-01T14:57:16.843Z,621
2022-12-01T14:58:16.500Z,621
2022-12-01T15:00:16.549Z,621
2022-12-01T15:01:16.507Z,682
2022-12-01T15:02:16.422Z,682
2022-12-01T15:03:16.363Z,682
2022-12-01T15:05:16.540Z,682
2022-12-01T15:06:16.387Z,671
2022-12-01T15:07:16.384Z,671
2022-12-01T15:08:40.110Z,671
2022-12-01T15:10:16.530Z,671
2022-12-01T15:11:16.373Z,658
2022-12-01T15:12:16.371Z,658
2022-12-01T15:13:16.379Z,658
2022-12-01T15:15:19.792Z,658
2022-12-01T15:16:16.420Z,611
2022-12-01T15:17:16.368Z,611
2022-12-01T15:18:16.344Z,611
2022-12-01T15:20:16.553Z,611
2022-12-01T15:21:16.419Z,611
2022-12-01T15:22:16.370Z,611
2022-12-01T15:23:16.381Z,611
2022-12-01T15:25:16.534Z,611
2022-12-01T15:26:16.355Z,621
2022-12-01T15:27:16.361Z,621
2022-12-01T15:28:16.359Z,621
2022-12-01T15:30:16.545Z,621
2022-12-01T15:31:16.417Z,631
2022-12-01T15:32:16.353Z,631
2022-12-01T15:33:16.363Z,631
2022-12-01T15:35:16.547Z,631
2022-12-01T15:36:16.389Z,631
2022-12-01T15:37:16.368Z,631
2022-12-01T15:38:16.405Z,631
2022-12-01T15:41:30.082Z,621
2022-12-01T15:42:16.370Z,621
2022-12-01T15:43:16.407Z,621
2022-12-01T15:45:16.571Z,621
2022-12-01T15:46:16.438Z,581
2022-12-01T15:47:16.360Z,581
2022-12-01T15:48:16.389Z,581
2022-12-01T15:50:16.543Z,581
2022-12-01T15:51:16.391Z,631
2022-12-01T15:52:16.399Z,631
2022-12-01T15:53:16.372Z,631
2022-12-01T15:55:16.648Z,631
2022-12-01T15:56:16.401Z,631
2022-12-01T15:57:16.389Z,631
2022-12-01T15:58:16.395Z,631
2022-12-01T16:00:16.595Z,631
2022-12-01T16:01:16.451Z,642
2022-12-01T16:02:16.405Z,642
2022-12-01T16:03:16.377Z,642
2022-12-01T16:05:16.581Z,642
2022-12-01T16:06:16.393Z,621
2022-12-01T16:07:16.408Z,621
2022-12-01T16:08:16.496Z,621
2022-12-01T16:10:16.573Z,621
2022-12-01T16:11:16.366Z,696
2022-12-01T16:12:16.372Z,696
2022-12-01T16:13:16.395Z,696
2022-12-01T16:15:16.576Z,696
2022-12-01T16:16:16.423Z,642
2022-12-01T16:17:16.404Z,642
2022-12-01T16:18:16.393Z,642
2022-12-01T16:20:16.559Z,642
2022-12-01T16:21:16.406Z,653
2022-12-01T16:22:16.394Z,653
2022-12-01T16:23:16.374Z,653
2022-12-01T16:25:16.549Z,653
2022-12-01T16:26:16.378Z,621
2022-12-01T16:27:16.394Z,621
2022-12-01T16:28:16.406Z,621
2022-12-01T16:30:16.575Z,621
2022-12-01T16:31:16.442Z,642
2022-12-01T16:32:20.870Z,642
2022-12-01T16:33:16.384Z,642
2022-12-01T16:35:16.586Z,642
2022-12-01T16:36:16.387Z,653
2022-12-01T16:37:16.397Z,653
2022-12-01T16:38:16.400Z,653
2022-12-01T16:40:16.626Z,653
2022-12-01T16:41:16.423Z,642
2022-12-01T16:42:16.422Z,642
2022-12-01T16:43:16.387Z,642
2022-12-01T16:45:16.685Z,642
2022-12-01T16:46:16.460Z,642
2022-12-01T16:47:16.395Z,642
2022-12-01T16:48:16.384Z,642
2022-12-01T16:50:16.590Z,642
2022-12-01T16:51:17.251Z,696
2022-12-01T16:52:42.817Z,696
2022-12-01T16:53:16.386Z,696
2022-12-01T16:55:16.568Z,696
2022-12-01T16:56:16.408Z,653
2022-12-01T16:57:16.402Z,653
2022-12-01T16:58:16.392Z,653
2022-12-01T17:00:16.592Z,653
2022-12-01T17:01:16.410Z,717
2022-12-01T17:02:16.453Z,717
2022-12-01T17:03:16.400Z,717
2022-12-01T17:05:16.583Z,717
2022-12-01T17:06:16.379Z,653
2022-12-01T17:07:16.421Z,653
2022-12-01T17:08:16.471Z,653
2022-12-01T17:10:16.637Z,653
2022-12-01T17:11:16.396Z,717
2022-12-01T17:12:16.424Z,717
2022-12-01T17:13:16.416Z,717